Pineville, MO (64856)

2:41 PM CDT on July 27, 2016 (GMT -0500)
Kincardine Dr | | Change Station

Elev 1158 ft 36.47 °N, 94.33 °W | Updated 7 minutes ago

Clear
Clear
84.9 °F
Feels Like 96 °F
N
1.9
Wind Variable Wind from SSW
Gusts 3.1 mph

Today
High -- | Low -- °F
--% Chance of Precip.
Yesterday
High -- | Low -- °F
Precip. -- in
Pressure 29.99 in
Visibility 10.0 miles
Clouds Clear
Heat Index 96 °F
Dew Point 78 °F
Humidity 79%
Rainfall 0.00 in
Snow Depth Not available.
6:20 AM 8:27 PM
Last Quarter, 40% visible
METAR KVBT 271935Z AUTO 29004KT 10SM VCTS CLR 28/22 A2999 RMK AO1 LTG DSNT E TSB14E31B35
Pressure 29.99 in
Visibility 10.0 miles
Clouds Clear
Heat Index 96 °F
Dew Point 78 °F
Humidity 79%
Rainfall 0.00 in
Snow Depth Not available.
6:20 AM 8:27 PM
Last Quarter, 40% visible
METAR KVBT 271935Z AUTO 29004KT 10SM VCTS CLR 28/22 A2999 RMK AO1 LTG DSNT E TSB14E31B35

10-Day Weather Forecast

Almanac

Astronomy

Jul. 27, 2016 Rise Set
Actual Time
Civil Twilight
Nautical Twilight
Astronomical Twilight
Moon
Length of Visible Light
Length of Day
Tomorrow will be .
, % of the Moon is Illuminated

Today's Extremes

State Highs State Lows

Community

WunderPhotos

Upload Photos

1,927,920 photos uploaded!

WunderBlog® & News

Nearby

Air Quality

  Air Quality AQ Index Pollutant
Not available.

Snow Depth

Station Depth Elevation

Earthquake Activity

City Distance Mag. Time & Date
Minimum magnitude displayed is 2.5.

Coastal Water Temperatures

Place Temperature

Stations

Nearby Weather Stations

Station Location Temp. Windchill Dew Point Humidity Wind Precip. Elev Updated Type
                   

Watches & Warnings

There are currently no watches in effect.